createdAt,value
2018-08-23T00:04:30.995Z,22.00
2018-08-23T00:09:34.332Z,21.90
2018-08-23T00:14:37.566Z,21.90
2018-08-23T00:19:40.862Z,21.70
2018-08-23T00:24:44.916Z,21.70
2018-08-23T00:29:48.975Z,21.60
2018-08-23T00:34:52.277Z,21.50
2018-08-23T00:39:56.402Z,21.30
2018-08-23T00:45:02.977Z,21.30
2018-08-23T00:50:06.298Z,21.30
2018-08-23T00:55:20.919Z,21.10
2018-08-23T01:00:25.492Z,21.00
2018-08-23T01:05:34.895Z,21.00
2018-08-23T01:10:39.604Z,20.90
2018-08-23T01:15:46.383Z,20.90
2018-08-23T01:20:50.983Z,20.80
2018-08-23T01:25:54.327Z,20.70
2018-08-23T01:31:06.884Z,20.50
2018-08-23T01:36:10.244Z,20.30
2018-08-23T01:41:13.496Z,20.20
2018-08-23T01:46:16.708Z,20.20
2018-08-23T01:51:19.990Z,20.20
2018-08-23T01:56:23.305Z,20.20
2018-08-23T02:01:27.046Z,20.30
2018-08-23T02:06:36.221Z,20.30
2018-08-23T02:11:39.465Z,20.20
2018-08-23T02:16:56.599Z,20.10
2018-08-23T02:21:59.885Z,20.10
2018-08-23T02:27:10.217Z,20.10
2018-08-23T02:32:14.102Z,20.10
2018-08-23T02:37:18.191Z,20.10
2018-08-23T02:42:21.468Z,20.00
2018-08-23T02:47:24.755Z,19.90
2018-08-23T02:52:32.208Z,19.90
2018-08-23T02:57:35.613Z,19.80
2018-08-23T03:02:38.882Z,19.60
2018-08-23T03:07:42.200Z,19.50
2018-08-23T03:12:45.492Z,19.40
2018-08-23T03:17:55.043Z,19.40
2018-08-23T03:22:58.279Z,19.40
2018-08-23T03:28:01.527Z,19.30
2018-08-23T03:33:04.784Z,19.30
2018-08-23T03:38:08.029Z,19.20
2018-08-23T03:43:11.292Z,19.10
2018-08-23T03:48:14.550Z,19.20
2018-08-23T03:53:17.824Z,19.10
2018-08-23T03:58:21.907Z,19.30
2018-08-23T04:03:25.993Z,19.30
2018-08-23T04:08:30.018Z,19.30
2018-08-23T04:13:33.254Z,19.30
2018-08-23T04:18:37.386Z,19.30
2018-08-23T04:23:41.519Z,19.30
2018-08-23T04:28:45.473Z,19.30
2018-08-23T04:33:49.003Z,19.10
2018-08-23T04:38:56.534Z,19.00
2018-08-23T04:44:05.883Z,18.90
2018-08-23T04:49:09.298Z,18.80
2018-08-23T04:54:12.534Z,18.70
2018-08-23T04:59:15.919Z,18.80
2018-08-23T05:04:19.744Z,19.00
2018-08-23T05:09:23.556Z,19.00
2018-08-23T05:14:27.608Z,19.10
2018-08-23T05:19:30.882Z,19.20
2018-08-23T05:24:34.107Z,19.30
2018-08-23T05:29:37.368Z,19.40
2018-08-23T05:34:40.736Z,19.60
2018-08-23T05:39:50.915Z,19.80
2018-08-23T05:50:33.100Z,20.20
2018-08-23T05:55:38.483Z,20.30
2018-08-23T06:00:44.274Z,20.50
2018-08-23T06:05:49.876Z,20.70
2018-08-23T06:10:59.204Z,20.90
2018-08-23T06:16:05.187Z,21.20
2018-08-23T06:21:10.114Z,21.40
2018-08-23T06:26:13.451Z,21.60
2018-08-23T06:31:16.688Z,22.00
2018-08-23T06:36:20.048Z,22.40
2018-08-23T06:41:23.382Z,22.80
2018-08-23T06:46:26.683Z,23.00
2018-08-23T06:51:30.214Z,23.50
2018-08-23T06:56:35.372Z,23.70
2018-08-23T07:01:44.260Z,24.10
2018-08-23T07:06:47.600Z,24.40
2018-08-23T07:11:50.999Z,24.90
2018-08-23T07:16:54.295Z,25.00
2018-08-23T07:21:58.927Z,25.30
2018-08-23T07:27:02.281Z,25.80
2018-08-23T07:32:07.091Z,26.20
2018-08-23T07:37:13.980Z,26.60
2018-08-23T07:42:17.329Z,26.80
2018-08-23T07:47:21.054Z,27.00
2018-08-23T07:52:25.172Z,27.30
2018-08-23T07:57:30.525Z,27.50
2018-08-23T08:02:33.855Z,27.50
2018-08-23T08:07:37.165Z,27.60
2018-08-23T08:12:45.803Z,27.70
2018-08-23T08:23:23.143Z,27.80
2018-08-23T08:28:26.495Z,28.10
2018-08-23T08:33:33.473Z,28.70
2018-08-23T08:38:37.010Z,29.20
2018-08-23T08:43:43.043Z,29.30
2018-08-23T08:48:47.579Z,29.40
2018-08-23T08:59:09.426Z,29.60
2018-08-23T09:04:24.992Z,29.80
2018-08-23T09:09:32.464Z,30.20
2018-08-23T09:14:36.794Z,30.10
2018-08-23T09:19:51.722Z,30.20
2018-08-23T09:24:55.077Z,30.90
2018-08-23T09:29:58.420Z,31.60
2018-08-23T09:35:03.203Z,31.50
2018-08-23T09:40:06.792Z,31.50
2018-08-23T09:45:18.034Z,31.80
2018-08-23T09:50:21.345Z,31.80
2018-08-23T09:55:28.251Z,32.20
2018-08-23T10:00:36.984Z,32.80
2018-08-23T10:05:47.680Z,33.00
2018-08-23T10:10:56.458Z,33.30
2018-08-23T10:16:05.152Z,33.10
2018-08-23T10:21:08.408Z,33.20
2018-08-23T10:26:27.946Z,33.40
2018-08-23T10:31:31.259Z,33.50
2018-08-23T10:36:34.642Z,33.80
2018-08-23T10:41:37.942Z,34.10
2018-08-23T10:46:46.792Z,34.20
2018-08-23T10:51:50.188Z,34.20
2018-08-23T10:56:53.455Z,33.90
2018-08-23T11:01:56.772Z,34.70
2018-08-23T11:07:00.064Z,34.80
2018-08-23T11:12:03.311Z,34.70
2018-08-23T11:17:12.389Z,34.20
2018-08-23T11:22:16.209Z,34.50
2018-08-23T11:27:19.594Z,34.00
2018-08-23T11:32:23.842Z,34.30
2018-08-23T11:37:27.162Z,34.00
2018-08-23T11:42:30.518Z,34.90
2018-08-23T11:47:33.943Z,35.50
2018-08-23T11:52:37.357Z,35.90
2018-08-23T11:57:40.657Z,36.10
2018-08-23T12:02:44.484Z,35.60
2018-08-23T12:07:53.230Z,36.00
2018-08-23T12:12:56.603Z,35.80
2018-08-23T12:18:00.492Z,35.60
2018-08-23T12:23:03.807Z,35.80
2018-08-23T12:28:12.532Z,35.40
2018-08-23T12:33:15.870Z,35.60
2018-08-23T12:38:24.677Z,35.70
2018-08-23T12:43:34.608Z,35.90
2018-08-23T12:48:37.880Z,35.80
2018-08-23T12:53:41.192Z,36.20
2018-08-23T12:58:44.675Z,36.40
2018-08-23T13:03:48.069Z,36.40
2018-08-23T13:08:52.576Z,36.10
2018-08-23T13:13:56.300Z,35.40
2018-08-23T13:18:59.629Z,36.10
2018-08-23T13:24:03.255Z,36.40
2018-08-23T13:29:06.592Z,35.80
2018-08-23T13:34:09.915Z,35.60
2018-08-23T13:39:14.292Z,35.40
2018-08-23T13:44:17.649Z,35.90
2018-08-23T13:49:20.924Z,36.30
2018-08-23T13:54:32.188Z,36.10
2018-08-23T13:59:35.676Z,36.10
2018-08-23T14:04:39.004Z,36.00
2018-08-23T14:09:42.307Z,36.10
2018-08-23T14:14:45.643Z,36.20
2018-08-23T14:27:22.313Z,36.10
2018-08-23T14:32:45.473Z,36.30
2018-08-23T16:46:29.641Z,36.10
2018-08-23T16:51:44.228Z,35.10
2018-08-23T16:56:56.780Z,35.50
2018-08-23T17:02:08.821Z,35.30
2018-08-23T17:07:20.021Z,34.90
2018-08-23T17:12:34.570Z,34.90
2018-08-23T17:17:44.739Z,34.10
2018-08-23T17:22:59.992Z,33.60
2018-08-23T17:28:13.902Z,33.00
2018-08-23T17:33:18.964Z,32.70
2018-08-23T17:38:26.840Z,32.40
2018-08-23T17:44:11.564Z,32.20
2018-08-23T17:54:55.629Z,31.60
2018-08-23T17:59:59.432Z,31.30
2018-08-23T18:05:15.143Z,31.10
2018-08-23T18:16:04.402Z,30.50
2018-08-23T18:21:13.075Z,30.20
2018-08-23T18:26:25.587Z,30.00
2018-08-23T18:31:30.228Z,29.60
2018-08-23T18:36:34.988Z,29.40
2018-08-23T18:41:42.030Z,29.20
2018-08-23T18:46:45.641Z,29.00
2018-08-23T18:51:54.966Z,28.80
2018-08-23T18:56:59.641Z,28.60
2018-08-23T19:07:52.411Z,28.30
2018-08-23T19:12:57.619Z,27.90
2018-08-23T19:18:06.556Z,27.50
2018-08-23T19:51:42.886Z,27.20
2018-08-23T19:56:51.497Z,26.30
2018-08-23T20:07:40.184Z,25.60
2018-08-23T20:18:29.214Z,25.10
2018-08-23T20:23:38.752Z,24.90
2018-08-23T20:28:43.105Z,24.60
2018-08-23T20:33:49.041Z,24.30
2018-08-23T20:38:52.381Z,24.20
2018-08-23T20:43:55.812Z,24.00
2018-08-23T20:48:59.267Z,24.00
2018-08-23T20:54:02.612Z,24.00
2018-08-23T20:59:06.294Z,23.90
2018-08-23T21:04:09.813Z,23.90
2018-08-23T21:09:13.749Z,23.80
2018-08-23T21:14:17.184Z,23.80
2018-08-23T21:19:20.484Z,23.80
2018-08-23T21:24:23.848Z,23.70
2018-08-23T21:29:27.180Z,23.80
2018-08-23T21:34:30.555Z,23.70
2018-08-23T21:39:33.938Z,23.70
2018-08-23T21:44:37.424Z,23.80
2018-08-23T21:49:40.743Z,23.60
2018-08-23T21:54:44.310Z,23.60
2018-08-23T21:59:47.728Z,23.40
2018-08-23T22:04:55.392Z,23.40
2018-08-23T22:09:58.714Z,23.40
2018-08-23T22:15:01.982Z,23.40
2018-08-23T22:20:05.283Z,23.40
2018-08-23T22:25:08.624Z,23.40
2018-08-23T22:30:11.924Z,23.20
2018-08-23T22:35:15.309Z,23.30
2018-08-23T22:40:18.662Z,23.30
2018-08-23T22:45:21.986Z,23.30
2018-08-23T22:50:25.992Z,23.40
2018-08-23T22:55:29.329Z,23.30
2018-08-23T23:00:38.132Z,23.10
2018-08-23T23:05:41.541Z,23.20
2018-08-23T23:10:44.912Z,22.90
2018-08-23T23:15:48.264Z,23.10
2018-08-23T23:20:51.962Z,23.00
2018-08-23T23:25:55.238Z,22.80
2018-08-23T23:30:58.535Z,22.70
2018-08-23T23:36:01.887Z,22.60
2018-08-23T23:41:05.516Z,22.60
2018-08-23T23:46:08.879Z,22.60
2018-08-23T23:51:12.179Z,22.60
2018-08-23T23:56:15.528Z,22.50
